Time;durP1;ratioP1;P1;durP2;ratioP2;P2;SDS_P1;SDS_P2;PMS_P1;PMS_P2;Temp;Humidity;BMP_temperature;BMP_pressure;BME280_temperature;BME280_humidity;BME280_pressure;Samples;Min_cycle;Max_cycle;Signal;HPM_P1;HPM_P2
2022/02/08 00:01:20;;;;;;;1.52;1.40;;;-5.40;99.90;;;;;;5092083;28;20027;-68
2022/02/08 00:03:46;;;;;;;1.40;1.30;;;-5.40;99.90;;;;;;5090967;28;20027;-67
2022/02/08 00:08:37;;;;;;;1.20;1.20;;;-5.30;99.90;;;;;;5092367;28;20085;-67
2022/02/08 00:11:03;;;;;;;1.30;1.20;;;-5.30;99.90;;;;;;5092106;28;20078;-67
2022/02/08 00:13:29;;;;;;;1.40;1.30;;;-5.30;99.90;;;;;;5092291;28;20020;-68
2022/02/08 00:15:54;;;;;;;1.42;1.30;;;-5.30;99.90;;;;;;5091925;28;20407;-67
2022/02/08 00:18:20;;;;;;;1.00;1.00;;;-5.30;99.90;;;;;;5091761;28;20059;-68
2022/02/08 00:20:46;;;;;;;1.30;1.20;;;-5.30;99.90;;;;;;5091945;28;20111;-68
2022/02/08 00:23:12;;;;;;;1.15;1.15;;;-5.30;99.90;;;;;;5092051;28;20016;-68
2022/02/08 00:25:37;;;;;;;1.02;1.02;;;-5.30;99.90;;;;;;5091778;28;20025;-67
2022/02/08 00:28:03;;;;;;;1.20;1.00;;;-5.40;99.90;;;;;;5091563;28;20069;-68
2022/02/08 00:30:29;;;;;;;0.93;0.93;;;-5.50;99.90;;;;;;5092118;28;20063;-67
2022/02/08 00:32:55;;;;;;;1.27;1.17;;;-5.70;99.90;;;;;;5091693;28;20025;-68
2022/02/08 00:35:21;;;;;;;1.30;1.20;;;-5.70;99.90;;;;;;5091619;28;20041;-67
2022/02/08 00:37:47;;;;;;;1.35;0.93;;;-5.70;99.90;;;;;;5091421;28;20043;-68
2022/02/08 00:40:13;;;;;;;2.88;1.00;;;-5.60;99.90;;;;;;5091931;28;20028;-67
2022/02/08 00:42:38;;;;;;;2.65;1.10;;;-5.50;99.90;;;;;;5092071;28;20050;-67
2022/02/08 00:47:39;;;;;;;1.15;1.10;;;-5.40;99.90;;;;;;5095591;28;20024;-68
2022/02/08 00:50:07;;;;;;;1.23;1.17;;;-5.50;99.90;;;;;;5095495;28;20036;-67
2022/02/08 00:52:38;;;;;;;1.13;1.10;;;-5.50;99.90;;;;;;5095506;28;20518;-67
2022/02/08 00:55:07;;;;;;;1.33;1.23;;;-5.70;99.90;;;;;;5095737;28;20054;-67
2022/02/08 00:57:33;;;;;;;1.08;1.08;;;-5.90;99.90;;;;;;5095474;28;20020;-67
2022/02/08 00:59:59;;;;;;;1.33;1.23;;;-6.00;99.90;;;;;;5095682;28;20028;-67
2022/02/08 01:02:26;;;;;;;1.17;1.08;;;-5.90;99.90;;;;;;5095291;28;20028;-67
2022/02/08 01:04:58;;;;;;;1.38;1.27;;;-6.00;99.90;;;;;;5095267;28;20475;-67
2022/02/08 01:07:26;;;;;;;1.27;1.20;;;-6.00;99.90;;;;;;5095230;28;20074;-67
2022/02/08 01:09:55;;;;;;;1.25;1.20;;;-6.00;99.90;;;;;;5095209;28;20063;-67
2022/02/08 01:12:22;;;;;;;1.20;1.10;;;-6.10;99.90;;;;;;5095236;28;20533;-68
2022/02/08 01:14:50;;;;;;;1.25;1.15;;;-6.00;99.90;;;;;;5094022;28;20494;-69
2022/02/08 01:17:17;;;;;;;1.30;1.23;;;-5.90;99.90;;;;;;5095151;28;20024;-68
2022/02/08 01:19:52;;;;;;;1.40;1.30;;;-5.90;99.90;;;;;;5095164;28;20035;-68
2022/02/08 01:22:18;;;;;;;1.42;1.30;;;-5.90;99.90;;;;;;5095277;28;20027;-68
2022/02/08 01:24:45;;;;;;;1.30;1.20;;;-6.00;99.90;;;;;;5095019;28;20066;-69
2022/02/08 01:27:12;;;;;;;1.50;1.40;;;-6.00;99.90;;;;;;5094706;28;20567;-68
2022/02/08 01:29:53;;;;;;;1.38;1.23;;;-6.00;99.90;;;;;;5094769;28;20077;-68
2022/02/08 01:51:02;;;;;;;1.17;1.17;;;-6.20;99.90;;;;;;5094536;28;20039;-68
2022/02/08 01:53:28;;;;;;;1.35;1.20;;;-6.20;99.90;;;;;;5094421;28;20032;-68
2022/02/08 01:55:55;;;;;;;1.00;1.00;;;-6.20;99.90;;;;;;5093266;28;20383;-68
2022/02/08 01:58:21;;;;;;;1.80;1.20;;;-6.20;99.90;;;;;;5094419;28;20658;-67
2022/02/08 02:00:46;;;;;;;1.35;1.25;;;-6.20;99.90;;;;;;5094569;28;20029;-67
2022/02/08 02:03:12;;;;;;;1.20;1.10;;;-6.20;99.90;;;;;;5094308;28;20020;-67
2022/02/08 02:05:38;;;;;;;1.20;1.10;;;-6.20;99.90;;;;;;5094422;28;20387;-67
2022/02/08 02:08:04;;;;;;;1.20;1.10;;;-6.10;99.90;;;;;;5094404;28;20020;-67
2022/02/08 02:10:30;;;;;;;1.10;1.10;;;-6.10;99.90;;;;;;5094161;28;20032;-67
2022/02/08 02:12:58;;;;;;;1.20;1.10;;;-6.20;99.90;;;;;;5094305;28;20031;-67
2022/02/08 02:15:24;;;;;;;1.65;1.10;;;-6.20;99.90;;;;;;5094121;28;20387;-67
2022/02/08 02:17:50;;;;;;;1.65;1.20;;;-6.30;99.90;;;;;;5094150;28;20020;-67
2022/02/08 02:20:17;;;;;;;3.15;1.20;;;-6.40;99.90;;;;;;5093758;28;20032;-68
2022/02/08 02:22:42;;;;;;;1.00;1.00;;;-6.40;99.90;;;;;;5092608;28;20467;-68
2022/02/08 02:54:17;;;;;;;1.38;1.27;;;-6.70;99.90;;;;;;5092236;28;20052;-68
2022/02/08 02:56:44;;;;;;;1.40;1.30;;;-6.60;99.90;;;;;;5092962;28;20528;-67
2022/02/08 02:59:10;;;;;;;1.30;1.20;;;-6.70;99.90;;;;;;5093126;28;20024;-67
2022/02/08 03:01:54;;;;;;;2.92;1.38;;;-6.70;99.90;;;;;;5092921;28;20039;-67
2022/02/08 03:38:03;;;;;;;2.03;1.23;;;-6.40;99.90;;;;;;5667520;22;20047;-69
2022/02/08 03:40:52;;;;;;;1.60;1.50;;;-6.40;99.90;;;;;;5092591;28;20110;-69
2022/02/08 03:45:51;;;;;;;1.20;1.20;;;-6.40;99.90;;;;;;5092226;28;20020;-69
2022/02/08 03:48:20;;;;;;;;;;;-6.50;99.90;;;;;;5084004;28;20459;-71
2022/02/08 03:50:52;;;;;;;2.33;1.58;;;-6.60;99.90;;;;;;5072215;28;19912;-71
2022/02/08 03:53:19;;;;;;;1.52;1.20;;;-6.70;99.90;;;;;;5072028;28;20490;-70
2022/02/08 03:55:44;;;;;;;1.80;1.65;;;-6.70;99.90;;;;;;5071901;28;20068;-70
2022/02/08 03:58:11;;;;;;;1.30;1.25;;;-6.80;99.90;;;;;;5072190;28;20113;-70
2022/02/08 04:01:03;;;;;;;2.75;1.70;;;-6.80;99.90;;;;;;5071888;28;20086;-70
2022/02/08 04:03:31;;;;;;;2.33;1.55;;;-6.90;99.90;;;;;;5071885;28;20020;-70
2022/02/08 04:05:59;;;;;;;3.35;1.30;;;-6.80;99.90;;;;;;5072006;28;20154;-70
2022/02/08 04:08:25;;;;;;;1.50;1.40;;;-6.80;99.90;;;;;;5071619;28;20024;-70
2022/02/08 04:10:51;;;;;;;1.70;1.38;;;-6.80;99.90;;;;;;5071835;28;20036;-70
2022/02/08 04:13:25;;;;;;;3.15;1.48;;;-6.80;99.90;;;;;;5071861;28;20020;-70
2022/02/08 04:37:49;;;;;;;1.52;1.42;;;-7.00;99.90;;;;;;5078169;28;20024;-70
2022/02/08 04:50:23;;;;;;;2.88;1.40;;;-7.30;99.90;;;;;;5078393;28;20483;-70
2022/02/08 04:52:51;;;;;;;1.50;1.40;;;-7.30;99.90;;;;;;5078029;28;20040;-70
2022/02/08 04:58:08;;;;;;;1.48;1.38;;;-7.40;99.90;;;;;;5078043;28;20410;-70
2022/02/08 05:36:58;;;;;;;2.83;1.88;;;-7.50;99.90;;;;;;5074854;28;20516;-74
2022/02/08 05:42:09;;;;;;;2.05;1.52;;;-7.60;99.90;;;;;;5090327;28;20035;-74
2022/02/08 05:44:41;;;;;;;2.10;1.90;;;-6.70;99.90;;;;;;5094085;28;20402;-72
2022/02/08 05:47:09;;;;;;;2.40;2.00;;;-6.50;99.90;;;;;;5094611;28;20117;-70
2022/02/08 05:49:44;;;;;;;2.85;1.58;;;-6.90;99.90;;;;;;5094112;28;20555;-74
2022/02/08 05:54:37;;;;;;;3.55;2.13;;;-7.30;99.90;;;;;;5094537;28;20446;-73
2022/02/08 05:57:03;;;;;;;1.80;1.70;;;-7.50;99.90;;;;;;5093529;28;20032;-71
2022/02/08 05:59:29;;;;;;;2.45;1.98;;;-7.70;99.90;;;;;;5092372;28;20382;-71
2022/02/08 06:01:55;;;;;;;3.00;2.00;;;-7.70;99.90;;;;;;5090710;28;20029;-71
2022/02/08 06:04:21;;;;;;;2.22;2.03;;;-7.80;99.90;;;;;;5089951;28;20160;-73
2022/02/08 06:06:47;;;;;;;2.13;1.92;;;-7.90;99.90;;;;;;5093443;28;20030;-76
2022/02/08 06:09:12;;;;;;;2.20;2.00;;;-8.00;99.90;;;;;;5092061;28;20020;-76
2022/02/08 06:11:39;;;;;;;1.90;1.80;;;-8.10;99.90;;;;;;5093596;28;20467;-76
2022/02/08 06:14:05;;;;;;;1.67;1.58;;;-8.30;99.90;;;;;;5093679;28;20051;-76
2022/02/08 06:16:33;;;;;;;1.90;1.70;;;-8.50;99.90;;;;;;5093025;28;20062;-76
2022/02/08 06:18:58;;;;;;;5.97;1.50;;;-8.60;99.90;;;;;;5092674;28;20031;-77
2022/02/08 06:21:24;;;;;;;2.00;1.80;;;-8.70;99.90;;;;;;5092246;28;20020;-76
2022/02/08 06:23:50;;;;;;;1.88;1.60;;;-8.70;99.90;;;;;;5090339;28;20031;-76
2022/02/08 06:26:16;;;;;;;1.80;1.70;;;-8.70;99.90;;;;;;5093743;28;20029;-69
2022/02/08 06:28:43;;;;;;;3.80;1.88;;;-8.80;99.90;;;;;;5093758;28;20115;-71
2022/02/08 06:31:09;;;;;;;2.60;1.77;;;-8.80;99.90;;;;;;5093732;28;20070;-70
2022/02/08 06:33:35;;;;;;;1.60;1.50;;;-8.50;99.90;;;;;;5093785;28;20099;-71
2022/02/08 06:36:01;;;;;;;2.97;1.63;;;-8.40;99.90;;;;;;5093671;28;20533;-71
2022/02/08 06:38:27;;;;;;;5.68;1.80;;;-8.40;99.90;;;;;;5093343;28;20048;-70
2022/02/08 06:40:54;;;;;;;1.60;1.50;;;-8.40;99.90;;;;;;5091646;28;20643;-71
2022/02/08 06:43:21;;;;;;;4.38;2.08;;;-8.40;99.90;;;;;;5093450;28;20028;-71
2022/02/08 06:45:47;;;;;;;5.63;2.85;;;-8.40;99.90;;;;;;5093625;28;20031;-70
2022/02/08 06:48:13;;;;;;;3.95;2.22;;;-8.40;99.90;;;;;;5073379;28;20475;-71
2022/02/08 06:50:39;;;;;;;2.35;2.00;;;-8.40;99.90;;;;;;5073151;28;20475;-71
2022/02/08 06:53:05;;;;;;;2.30;2.10;;;-8.40;99.90;;;;;;5072999;28;20020;-71
2022/02/08 06:55:31;;;;;;;3.65;2.28;;;-8.40;99.90;;;;;;5072978;28;20024;-73
2022/02/08 06:58:05;;;;;;;2.20;2.00;;;-8.40;99.90;;;;;;5073118;28;20086;-73
2022/02/08 07:00:41;;;;;;;4.47;2.08;;;-8.40;99.90;;;;;;5072893;28;20391;-71
2022/02/08 07:03:17;;;;;;;1.80;1.70;;;-8.30;99.90;;;;;;5073000;28;20035;-75
2022/02/08 07:05:43;;;;;;;3.40;1.90;;;-8.10;99.90;;;;;;5073164;28;20024;-77
2022/02/08 07:08:10;;;;;;;2.28;1.70;;;-7.80;99.90;;;;;;5072908;28;20682;-79
2022/02/08 07:10:36;;;;;;;3.10;2.03;;;-7.90;99.90;;;;;;5072930;28;20139;-79
2022/02/08 07:13:03;;;;;;;3.75;2.17;;;-8.00;99.90;;;;;;5073029;28;20082;-77
2022/02/08 07:15:30;;;;;;;5.85;2.25;;;-8.00;99.90;;;;;;5072527;28;20025;-78
2022/02/08 07:17:55;;;;;;;4.47;2.25;;;-8.10;99.90;;;;;;5072781;28;20017;-78
2022/02/08 07:20:21;;;;;;;4.38;2.30;;;-8.10;99.90;;;;;;5072860;28;20039;-77
2022/02/08 07:22:47;;;;;;;4.93;2.53;;;-8.10;99.90;;;;;;5072518;28;20419;-81
2022/02/08 07:25:13;;;;;;;4.38;2.53;;;-8.10;99.90;;;;;;5072517;28;20043;-77
2022/02/08 07:27:39;;;;;;;2.78;2.20;;;-8.10;99.90;;;;;;5072564;28;20031;-77
2022/02/08 07:30:13;;;;;;;8.35;2.53;;;-8.10;99.90;;;;;;5071045;28;20036;-74
2022/02/08 07:32:40;;;;;;;3.70;2.40;;;-8.10;99.90;;;;;;5072302;28;20036;-73
2022/02/08 07:35:20;;;;;;;3.25;1.88;;;-8.10;99.90;;;;;;5072310;28;20063;-73
2022/02/08 07:40:27;;;;;;;5.88;2.33;;;-8.00;99.90;;;;;;5092227;28;20032;-74
2022/02/08 07:42:53;;;;;;;4.60;2.00;;;-8.10;99.90;;;;;;5089199;28;20031;-75
2022/02/08 07:45:19;;;;;;;3.47;2.20;;;-8.10;99.90;;;;;;5092014;28;20378;-75
2022/02/08 07:47:44;;;;;;;5.10;2.33;;;-8.10;99.90;;;;;;5092112;28;20031;-76
2022/02/08 07:50:12;;;;;;;2.72;2.20;;;-8.10;99.90;;;;;;5092037;28;20077;-76
2022/02/08 07:52:38;;;;;;;4.50;2.30;;;-8.10;99.90;;;;;;5091134;28;20384;-77
2022/02/08 07:55:05;;;;;;;4.75;2.40;;;-8.00;99.90;;;;;;5092108;28;20031;-77
2022/02/08 07:57:30;;;;;;;2.13;1.92;;;-8.00;99.90;;;;;;5089059;28;20054;-75
2022/02/08 07:59:56;;;;;;;4.50;2.30;;;-8.00;99.90;;;;;;5091982;28;20024;-75
2022/02/08 08:02:22;;;;;;;2.83;2.30;;;-8.00;99.90;;;;;;5091421;28;20023;-78
2022/02/08 08:04:47;;;;;;;2.95;1.52;;;-8.00;99.90;;;;;;5086729;28;20028;-70
2022/02/08 08:07:13;;;;;;;2.00;1.63;;;-6.90;99.90;;;;;;5089812;28;20029;-70
2022/02/08 08:09:41;;;;;;;4.47;2.28;;;-4.70;99.90;;;;;;5091569;28;20105;-69
2022/02/08 08:12:10;;;;;;;3.28;1.85;;;-3.10;99.90;;;;;;5092123;28;20489;-71
2022/02/08 08:14:37;;;;;;;2.93;1.93;;;-2.20;99.90;;;;;;5091575;28;20538;-71
2022/02/08 08:17:41;;;;;;;6.63;1.77;;;-1.50;99.90;;;;;;5091608;28;20032;-70
2022/02/08 08:19:50;;;;;;;3.65;1.73;;;-0.80;99.90;;;;;;5086383;28;20121;-71
2022/02/08 08:22:19;;;;;;;11.50;2.40;;;-0.30;99.90;;;;;;5080402;28;20020;-71
2022/02/08 08:24:46;;;;;;;6.25;2.50;;;0.10;99.90;;;;;;5088294;28;20541;-71
2022/02/08 08:27:14;;;;;;;3.22;2.40;;;0.40;99.90;;;;;;5087561;28;20036;-71
2022/02/08 08:29:40;;;;;;;5.30;2.05;;;0.60;95.60;;;;;;5086523;28;20059;-71
2022/02/08 08:32:07;;;;;;;4.07;2.33;;;0.90;92.30;;;;;;5091073;28;20020;-71
2022/02/08 08:34:34;;;;;;;5.38;2.42;;;1.10;90.30;;;;;;5091200;28;20420;-71
2022/02/08 08:37:01;;;;;;;4.13;2.53;;;1.30;87.20;;;;;;5091154;28;20395;-72
2022/02/08 08:39:34;;;;;;;5.63;2.50;;;1.40;84.40;;;;;;5091841;28;20052;-78
2022/02/08 08:52:34;;;;;;;5.32;2.75;;;-2.80;85.70;;;;;;5091505;28;20115;-77
2022/02/08 08:55:00;;;;;;;6.43;2.88;;;-3.20;90.00;;;;;;5091445;28;20023;-78
2022/02/08 08:57:27;;;;;;;6.35;2.50;;;-3.60;91.20;;;;;;5091477;28;20030;-78
2022/02/08 08:59:53;;;;;;;12.52;2.65;;;-4.00;93.30;;;;;;5091252;28;20055;-78
2022/02/08 09:02:19;;;;;;;4.47;2.28;;;-4.20;94.90;;;;;;5091511;28;20544;-78
2022/02/08 09:04:46;;;;;;;8.55;2.97;;;-4.40;96.80;;;;;;5093318;28;20059;-80
2022/02/08 09:07:12;;;;;;;6.22;2.55;;;-4.60;98.10;;;;;;5095260;28;20027;-82
2022/02/08 09:09:41;;;;;;;7.28;3.00;;;-4.70;99.90;;;;;;5095079;28;20028;-79
2022/02/08 09:20:44;;;;;;;5.75;2.83;;;-4.50;99.90;;;;;;5095403;28;20024;-78
2022/02/08 09:23:47;;;;;;;19.90;7.45;;;-4.60;99.90;;;;;;5095020;28;20098;-78
2022/02/08 09:31:05;;;;;;;4.03;2.33;;;-4.90;99.90;;;;;;5094989;28;20043;-76
2022/02/08 09:33:31;;;;;;;7.90;3.00;;;-4.30;99.90;;;;;;5093719;28;20024;-81
2022/02/08 09:35:57;;;;;;;10.75;2.90;;;-4.10;99.90;;;;;;5094542;28;20455;-78
2022/02/08 09:38:29;;;;;;;3.97;2.55;;;-4.50;99.90;;;;;;5093695;28;20093;-78
2022/02/08 09:40:57;;;;;;;4.57;2.58;;;-4.90;99.90;;;;;;5093908;28;20081;-78
2022/02/08 09:43:24;;;;;;;4.35;2.72;;;-5.20;99.90;;;;;;5094018;28;20027;-78
2022/02/08 09:45:51;;;;;;;4.50;2.60;;;-5.40;99.90;;;;;;5093861;28;20047;-76
2022/02/08 09:48:43;;;;;;;5.95;2.97;;;-5.50;99.90;;;;;;5094823;28;20092;-80
2022/02/08 09:51:07;;;;;;;5.70;2.75;;;-5.60;99.90;;;;;;5094192;28;20176;-80
2022/02/08 09:53:35;;;;;;;9.25;3.20;;;-5.80;99.90;;;;;;5094514;28;20051;-80
2022/02/08 09:56:03;;;;;;;5.50;3.13;;;-5.80;99.90;;;;;;5094350;28;20020;-79
2022/02/08 09:58:29;;;;;;;5.40;3.08;;;-5.80;99.90;;;;;;5093042;28;20027;-76
2022/02/08 10:01:13;;;;;;;7.50;3.00;;;-5.60;99.90;;;;;;5094168;28;20024;-79
2022/02/08 10:03:56;;;;;;;5.30;3.60;;;-5.10;99.90;;;;;;5094291;28;20016;-72
2022/02/08 10:06:26;;;;;;;7.22;3.33;;;-5.00;99.90;;;;;;5094062;28;20031;-76
2022/02/08 10:09:05;;;;;;;7.00;2.83;;;-4.90;99.90;;;;;;5093866;28;20077;-78
2022/02/08 10:11:42;;;;;;;5.53;3.28;;;-3.20;99.90;;;;;;5092570;28;20032;-78
2022/02/08 10:14:20;;;;;;;9.93;2.92;;;-3.00;99.90;;;;;;5094070;28;20024;-79
2022/02/08 10:22:49;;;;;;;5.05;3.00;;;-3.20;99.90;;;;;;5094032;28;20062;-80
2022/02/08 10:28:12;;;;;;;11.88;3.28;;;-3.70;99.90;;;;;;5093975;28;20038;-81
2022/02/08 10:39:06;;;;;;;14.07;4.05;;;-1.30;99.90;;;;;;5093247;28;20063;-79
2022/02/08 10:41:34;;;;;;;14.88;4.40;;;-2.10;99.90;;;;;;5093596;28;20021;-81
2022/02/08 10:44:05;;;;;;;11.40;3.83;;;-2.70;99.90;;;;;;5093385;28;20046;-80
2022/02/08 10:46:31;;;;;;;13.48;4.60;;;-3.00;99.90;;;;;;5093590;28;20016;-80
2022/02/08 10:49:07;;;;;;;14.73;4.97;;;-3.20;99.90;;;;;;5093625;28;20032;-80
2022/02/08 10:51:58;;;;;;;11.43;5.18;;;-3.20;99.90;;;;;;5093464;28;20386;-81
2022/02/08 10:54:35;;;;;;;19.77;5.50;;;-3.30;99.90;;;;;;5092812;28;20389;-80
2022/02/08 10:57:10;;;;;;;14.90;4.47;;;-3.40;99.90;;;;;;5093169;28;20042;-80
2022/02/08 10:59:42;;;;;;;14.57;3.58;;;-3.40;99.90;;;;;;5093315;28;20032;-81
2022/02/08 11:02:56;;;;;;;10.95;3.97;;;-2.80;99.90;;;;;;5093347;28;20025;-81
2022/02/08 11:05:15;;;;;;;23.92;6.03;;;-1.90;99.90;;;;;;5087078;28;20043;-82
2022/02/08 11:08:00;;;;;;;22.23;5.70;;;-1.90;99.90;;;;;;5093167;28;20047;-81
2022/02/08 11:16:05;;;;;;;22.58;5.97;;;-3.00;99.90;;;;;;5092776;28;20012;-81
2022/02/08 11:21:39;;;;;;;23.88;6.20;;;-3.40;99.90;;;;;;5092894;28;20024;-82
2022/02/08 11:24:38;;;;;;;18.67;5.75;;;-3.40;99.90;;;;;;5091370;28;20179;-82
2022/02/08 11:27:14;;;;;;;26.38;6.15;;;-3.20;99.90;;;;;;5092483;28;20067;-78
2022/02/08 11:30:06;;;;;;;22.88;5.45;;;-3.20;99.90;;;;;;5092553;28;20100;-81
2022/02/08 11:33:01;;;;;;;14.32;5.35;;;-2.70;99.90;;;;;;5092777;28;20494;-81
2022/02/08 11:47:22;;;;;;;15.45;5.05;;;-3.10;99.90;;;;;;5092568;28;20382;-81
2022/02/08 12:07:52;;;;;;;13.65;4.97;;;-3.10;99.90;;;;;;5092185;28;20042;-81
2022/02/08 12:13:40;;;;;;;13.57;5.57;;;-3.00;99.90;;;;;;5092130;28;20039;-81
2022/02/08 12:58:56;;;;;;;16.20;5.45;;;-2.60;99.90;;;;;;5052945;28;20399;-81
2022/02/08 13:00:58;;;;;;;12.73;5.15;;;-2.60;99.90;;;;;;5080745;28;20457;-81
2022/02/08 14:09:31;;;;;;;17.38;4.70;;;-1.30;99.90;;;;;;5093671;28;20039;-76
2022/02/08 14:22:12;;;;;;;17.50;6.38;;;-0.40;99.90;;;;;;5069183;28;20160;-75
2022/02/08 14:29:51;;;;;;;16.92;5.50;;;-0.90;99.90;;;;;;5093393;28;20436;-75
2022/02/08 14:32:23;;;;;;;13.48;5.30;;;-1.00;99.90;;;;;;5093256;28;20383;-75
2022/02/08 15:10:01;;;;;;;13.63;4.03;;;-2.30;99.90;;;;;;5090652;28;20024;-75
2022/02/08 15:12:31;;;;;;;19.55;4.50;;;-2.20;99.90;;;;;;5089647;28;20023;-75
2022/02/08 15:17:58;;;;;;;8.73;3.22;;;-2.10;99.90;;;;;;5054998;28;20043;-77
2022/02/08 15:20:25;;;;;;;8.10;3.08;;;-1.60;99.90;;;;;;5079975;28;21269;-74
2022/02/08 15:22:52;;;;;;;11.05;3.72;;;-0.80;99.90;;;;;;5086214;28;20501;-75
2022/02/08 15:25:18;;;;;;;14.05;3.78;;;-0.50;99.90;;;;;;5085511;28;20016;-74
2022/02/08 15:27:46;;;;;;;10.75;3.83;;;-0.90;99.90;;;;;;5086645;28;20357;-75
2022/02/08 15:30:12;;;;;;;11.10;3.80;;;-1.30;99.90;;;;;;5087354;28;20030;-75
2022/02/08 15:32:38;;;;;;;12.90;4.05;;;-1.50;99.90;;;;;;5089776;28;20020;-74
2022/02/08 15:35:08;;;;;;;14.15;4.85;;;-1.70;99.90;;;;;;5085793;28;20024;-73
2022/02/08 15:37:35;;;;;;;13.65;3.80;;;-1.80;99.90;;;;;;5091926;28;20094;-74
2022/02/08 15:40:04;;;;;;;12.48;3.67;;;-2.00;99.90;;;;;;5088917;28;20107;-74
2022/02/08 15:42:32;;;;;;;17.08;4.65;;;-2.10;99.90;;;;;;5087013;28;20127;-74
2022/02/08 15:45:04;;;;;;;14.20;4.30;;;-2.30;99.90;;;;;;5089322;28;20437;-74
2022/02/08 15:47:30;;;;;;;12.75;4.25;;;-2.40;99.90;;;;;;5089526;28;20016;-73
2022/02/08 15:50:06;;;;;;;13.15;3.85;;;-2.40;99.90;;;;;;5087378;28;20025;-74
2022/02/08 15:55:13;;;;;;;13.23;4.30;;;-2.60;99.90;;;;;;5080571;28;20057;-75
2022/02/08 15:58:24;;;;;;;15.77;4.78;;;-2.70;99.90;;;;;;5081466;28;20024;-75
2022/02/08 16:00:49;;;;;;;11.00;4.70;;;-2.60;99.90;;;;;;5077696;28;20039;-75
2022/02/08 16:08:34;;;;;;;13.95;4.53;;;-2.50;99.90;;;;;;5091861;28;20027;-75
2022/02/08 16:11:34;;;;;;;9.95;4.60;;;-2.50;99.90;;;;;;5089960;28;20042;-75
2022/02/08 16:18:58;;;;;;;8.07;3.28;;;-2.60;99.90;;;;;;5093857;28;20020;-75
2022/02/08 16:21:40;;;;;;;10.15;3.33;;;-2.70;99.90;;;;;;5092177;28;20027;-77
2022/02/08 16:27:11;;;;;;;12.85;3.45;;;-2.00;99.90;;;;;;5092052;28;20084;-74
2022/02/08 16:59:36;;;;;;;6.55;2.92;;;-2.90;99.90;;;;;;5091639;28;20024;-76
2022/02/08 17:02:05;;;;;;;7.93;2.70;;;-2.90;99.90;;;;;;5091736;28;20034;-75
2022/02/08 17:04:30;;;;;;;10.80;2.95;;;-2.90;99.90;;;;;;5090435;28;20028;-77
2022/02/08 17:06:56;;;;;;;9.35;3.55;;;-2.70;99.90;;;;;;5091772;28;20441;-77
2022/02/08 17:12:08;;;;;;;8.02;2.65;;;-2.80;99.90;;;;;;5091695;28;20039;-77
2022/02/08 17:45:42;;;;;;;7.88;2.38;;;-1.90;99.90;;;;;;5094959;28;20391;-73
2022/02/08 17:47:44;;;;;;;9.05;2.08;;;-2.20;99.90;;;;;;5094308;28;20032;-74
2022/02/08 17:50:18;;;;;;;6.25;2.47;;;-2.50;99.90;;;;;;5094423;28;20027;-74
2022/02/08 17:52:46;;;;;;;5.97;2.33;;;-2.60;99.90;;;;;;5094564;28;20035;-74
2022/02/08 17:55:15;;;;;;;5.45;2.60;;;-2.60;99.90;;;;;;5094377;28;20038;-74
2022/02/08 17:57:41;;;;;;;6.38;2.50;;;-2.70;99.90;;;;;;5094366;28;20514;-74
2022/02/08 18:00:10;;;;;;;7.72;2.17;;;-2.80;99.90;;;;;;5094173;28;20042;-74
2022/02/08 18:02:36;;;;;;;8.70;2.88;;;-2.80;99.90;;;;;;5094368;28;20044;-73
2022/02/08 18:05:02;;;;;;;3.97;1.80;;;-2.80;99.90;;;;;;5093993;28;20031;-74
2022/02/08 18:07:30;;;;;;;12.80;2.28;;;-2.80;99.90;;;;;;5093837;28;20024;-74
2022/02/08 18:09:56;;;;;;;11.95;2.42;;;-2.80;99.90;;;;;;5094496;28;20042;-74
2022/02/08 18:12:25;;;;;;;8.02;2.55;;;-2.80;99.90;;;;;;5093970;28;20031;-74
2022/02/08 18:14:58;;;;;;;5.78;2.70;;;-2.80;99.90;;;;;;5094090;28;20027;-73
2022/02/08 18:17:33;;;;;;;6.47;3.50;;;-2.80;99.90;;;;;;5094222;28;20382;-74
2022/02/08 19:07:03;;;;;;;2.83;1.60;;;-1.90;99.90;;;;;;5093571;28;20097;-77
2022/02/08 19:16:52;;;;;;;6.30;1.80;;;-1.90;99.90;;;;;;5092890;28;20543;-74
2022/02/08 19:19:32;;;;;;;4.63;2.22;;;-2.00;99.90;;;;;;5092657;28;20082;-75
2022/02/08 19:21:58;;;;;;;6.45;2.15;;;-2.00;99.90;;;;;;5092869;28;20036;-74
2022/02/08 19:24:24;;;;;;;4.38;1.75;;;-2.00;99.90;;;;;;5092796;28;20085;-74
2022/02/08 19:26:52;;;;;;;3.70;1.88;;;-2.00;99.90;;;;;;5091618;28;20030;-75
2022/02/08 19:29:19;;;;;;;4.60;2.10;;;-2.00;99.90;;;;;;5092747;28;20020;-73
2022/02/08 19:31:46;;;;;;;9.65;1.83;;;-2.10;99.90;;;;;;5092198;28;20130;-74
2022/02/08 19:34:12;;;;;;;5.38;1.90;;;-2.10;99.90;;;;;;5090910;28;20028;-75
2022/02/08 19:36:39;;;;;;;8.70;5.43;;;-2.30;99.90;;;;;;5091803;28;20026;-74
2022/02/08 19:39:05;;;;;;;5.18;2.75;;;-2.30;99.90;;;;;;5092449;28;20094;-74
2022/02/08 19:41:33;;;;;;;3.50;2.10;;;-2.30;99.90;;;;;;5092357;28;20032;-74
2022/02/08 19:44:00;;;;;;;4.70;1.67;;;-2.30;99.90;;;;;;5091240;28;20021;-75
2022/02/08 19:46:26;;;;;;;5.95;1.80;;;-2.30;99.90;;;;;;5092360;28;20031;-74
2022/02/08 19:48:52;;;;;;;4.32;1.88;;;-2.30;99.90;;;;;;5092587;28;20024;-74
2022/02/08 19:51:18;;;;;;;8.57;1.70;;;-2.30;99.90;;;;;;5092275;28;20444;-74
2022/02/08 19:53:46;;;;;;;3.70;1.77;;;-2.30;99.90;;;;;;5092520;28;20024;-74
2022/02/08 19:58:47;;;;;;;4.40;1.88;;;-2.30;99.90;;;;;;5092750;28;20078;-74
2022/02/08 20:01:19;;;;;;;8.10;2.20;;;-2.40;99.90;;;;;;5092173;28;20027;-74
2022/02/08 20:04:27;;;;;;;4.90;2.10;;;-2.40;99.90;;;;;;5092579;28;20039;-73
2022/02/08 20:06:34;;;;;;;4.93;2.20;;;-2.50;99.90;;;;;;5086234;28;20471;-74
2022/02/08 20:09:03;;;;;;;2.00;1.55;;;-2.50;99.90;;;;;;5092588;28;20020;-73
2022/02/08 20:11:30;;;;;;;7.68;2.22;;;-2.60;99.90;;;;;;5090637;28;20123;-74
2022/02/08 20:13:59;;;;;;;7.00;2.38;;;-2.60;99.90;;;;;;5092174;28;20703;-74
2022/02/08 20:16:27;;;;;;;3.85;1.73;;;-2.60;99.90;;;;;;5091808;28;20032;-75
2022/02/08 20:18:57;;;;;;;4.25;1.80;;;-2.70;99.90;;;;;;5092077;28;20090;-74
2022/02/08 20:21:24;;;;;;;4.07;1.70;;;-2.70;99.90;;;;;;5091758;28;20082;-75
2022/02/08 20:23:51;;;;;;;2.67;1.50;;;-2.70;99.90;;;;;;5092133;28;20023;-75
2022/02/08 20:26:20;;;;;;;2.63;1.90;;;-2.80;99.90;;;;;;5107424;28;20433;-74
2022/02/08 20:28:51;;;;;;;3.90;1.60;;;-2.90;99.90;;;;;;5091929;28;20031;-74
2022/02/08 20:31:17;;;;;;;5.18;1.67;;;-2.90;99.90;;;;;;5090396;28;20477;-75
2022/02/08 20:33:44;;;;;;;3.55;1.58;;;-2.90;99.90;;;;;;5107653;28;20090;-74
2022/02/08 20:36:10;;;;;;;5.05;1.92;;;-2.80;99.90;;;;;;5091864;28;20027;-75
2022/02/08 20:38:36;;;;;;;1.98;1.30;;;-2.80;99.90;;;;;;5091500;28;20040;-74
2022/02/08 20:41:03;;;;;;;2.00;1.20;;;-2.50;99.90;;;;;;5091835;28;20028;-75
2022/02/08 20:43:33;;;;;;;2.35;1.38;;;-2.10;99.90;;;;;;5091793;28;20103;-71
2022/02/08 20:46:00;;;;;;;2.95;1.65;;;-1.80;99.90;;;;;;5091809;28;20073;-76
2022/02/08 20:48:27;;;;;;;3.47;1.50;;;-1.90;99.90;;;;;;5091874;28;20039;-77
2022/02/08 20:50:59;;;;;;;2.92;1.50;;;-2.10;99.90;;;;;;5091370;28;20040;-77
2022/02/08 20:53:52;;;;;;;4.25;1.58;;;-2.30;99.90;;;;;;5090890;28;20023;-77
2022/02/08 20:56:15;;;;;;;2.40;1.25;;;-2.40;99.90;;;;;;5087243;28;20055;-77
2022/02/08 21:01:21;;;;;;;2.60;1.33;;;-2.70;99.90;;;;;;5091016;28;20027;-77
2022/02/08 21:04:06;;;;;;;3.70;1.40;;;-2.80;99.90;;;;;;5094630;28;20085;-77
2022/02/08 21:06:34;;;;;;;5.43;1.48;;;-2.90;99.90;;;;;;5095016;28;20217;-77
2022/02/08 21:09:01;;;;;;;2.33;1.20;;;-2.90;99.90;;;;;;5093728;28;20024;-77
2022/02/08 21:11:33;;;;;;;2.13;1.02;;;-2.90;99.90;;;;;;5094690;28;20111;-77
2022/02/08 21:14:06;;;;;;;3.72;1.20;;;-3.00;99.90;;;;;;5093606;28;20446;-77
2022/02/08 21:16:39;;;;;;;1.73;1.25;;;-3.00;99.90;;;;;;5094631;28;20024;-78
2022/02/08 21:19:05;;;;;;;1.67;1.05;;;-3.00;99.90;;;;;;5093422;28;20028;-76
2022/02/08 21:21:31;;;;;;;2.85;1.42;;;-2.90;99.90;;;;;;5094355;28;20030;-78
2022/02/08 21:23:57;;;;;;;2.38;1.30;;;-2.90;99.90;;;;;;5094695;28;20025;-80
2022/02/08 21:26:28;;;;;;;2.58;1.33;;;-2.90;99.90;;;;;;5094881;28;20493;-78
2022/02/08 21:29:15;;;;;;;2.58;1.55;;;-2.90;99.90;;;;;;5095428;28;20024;-77
2022/02/08 21:52:58;;;;;;;1.42;1.17;;;-1.90;99.90;;;;;;5093831;28;20043;-72
2022/02/08 21:55:25;;;;;;;1.27;1.00;;;-2.30;99.90;;;;;;5085470;28;20034;-72
2022/02/08 21:57:54;;;;;;;3.33;1.38;;;-2.50;99.90;;;;;;5090209;28;20024;-71
2022/02/08 22:00:24;;;;;;;1.63;1.25;;;-2.70;99.90;;;;;;5090452;28;20024;-72
2022/02/08 22:02:51;;;;;;;3.33;1.30;;;-2.80;99.90;;;;;;5093350;28;20039;-72
2022/02/08 22:05:18;;;;;;;2.97;0.95;;;-2.90;99.90;;;;;;5094046;28;20031;-72
2022/02/08 22:07:53;;;;;;;3.03;1.10;;;-3.00;99.90;;;;;;5094193;28;20028;-72
2022/02/08 22:30:48;;;;;;;1.65;1.00;;;-2.80;99.90;;;;;;5094012;28;20483;-73
2022/02/08 22:33:14;;;;;;;3.67;1.13;;;-2.90;99.90;;;;;;5093815;28;20111;-73
2022/02/08 22:35:43;;;;;;;0.95;0.95;;;-2.90;99.90;;;;;;5093696;28;20149;-72
2022/02/08 22:38:30;;;;;;;4.05;1.15;;;-2.90;99.90;;;;;;5093506;28;20051;-72
2022/02/08 22:40:58;;;;;;;4.80;1.30;;;-2.90;99.90;;;;;;5094100;28;20096;-72
2022/02/08 22:43:33;;;;;;;5.00;1.90;;;-2.90;99.90;;;;;;5093537;28;20051;-72
2022/02/08 22:45:59;;;;;;;2.70;1.13;;;-2.90;99.90;;;;;;5092665;28;20035;-72
2022/02/08 22:48:27;;;;;;;2.22;1.13;;;-2.90;99.90;;;;;;5092620;28;20016;-72
2022/02/08 22:50:52;;;;;;;3.95;1.20;;;-2.90;99.90;;;;;;5093360;28;20024;-72